JG1JZL-7 台站信息

JG1JZL-7 JG1JZL-7    新窗口  历史数据
消息: TXC:70 Temp: 28.25F Humid:64.72% Batt: 3.9V LoRa 433M775,LightTrackerPlus1.0
最新位置: 140°10'19" E 35°40'4" N (QM05CQ)   
最近时间: 2026-09-06 11:51:09
最新传递路径: JG1JZL-7>APLIGP,WIDE1-1,qAO,JG1JZL-10
数据包: 158    (导出KML文件)(导出GPX文件)
附加信息: 速度0.0km/h 方向87° 海拔29.9m
设备: TA2MUN/TA9OHC:LightAPRS Tracker(tracker)
其他SSID:
通过无线电波直接听到JG1JZL-7的台站
呼号 首次听到
上次听到
最远(tx=>rx) 最远位于
JG1JZL-10 JG1JZL-10 134
2026-09-05 11:56:43
2026-09-06 11:51:10
0.05km 168.0° 2026-09-06 06:54:16 
JG1JZL-7当前位置附近的台站
呼号 距离 位置时刻
JK1ACP-A JK1ACP-A 15.06km 267° 2026-09-05 12:14:17.021
JQ1UCF-9 JQ1UCF-9 16.57km 277° 2026-09-05 10:21:17.836
JG1PNO-9 JG1PNO-9 13.04km 262° 2026-09-06 07:35:49.165
JM8TSS-7 JM8TSS-7 10.90km 271° 2026-09-06 06:13:31.42
JL1ALS-9 JL1ALS-9 8.32km 245° 2026-09-06 11:50:39.032
JQ1ZVN-10 JQ1ZVN-10 11.39km 279° 2026-09-06 11:26:42.394
JK1TBM-9 JK1TBM-9 8.49km 300° 2026-09-06 11:22:09.38
7K1VKU-9 7K1VKU-9 6.45km 150° 2026-09-05 19:41:21.945
JQ1XLC-9 JQ1XLC-9 3.72km 207° 2026-09-05 14:23:25.21
7L1RMY-7 7L1RMY-7 1.37km 268° 2026-09-06 05:27:44.572
JG1JZL-10 JG1JZL-10 0.01km 53° 2026-09-06 11:29:25.447
JA1BTZ-9 JA1BTZ-9 5.99km 323° 2026-09-05 12:16:07.513
JQ1QBR-9 JQ1QBR-9 4.36km 66° 2026-09-06 06:36:52.302
JL1TJX-1 JL1TJX-1 22.20km 288° 2026-09-06 11:51:05.7
JG1LKT-D JG1LKT-D 20.21km 288° 2026-09-06 11:36:22.531
JN1ZOG-13 JN1ZOG-13 17.17km 295° 2026-09-06 11:54:21.872
JO1JVC JO1JVC 17.80km 304° 2026-09-06 06:50:38.818
JI1UAG-7 JI1UAG-7 16.57km 306° 2026-09-06 07:39:10.814
JN1DIV-9 JN1DIV-9 9.11km 311° 2026-09-06 11:26:56.188
JJ1RXH JJ1RXH 26.54km 316° 2026-09-05 20:46:33.705
JM1YUG-3 JM1YUG-3 22.28km 326° 2026-09-06 11:26:45.954
7M1JXF-9 7M1JXF-9 7.80km 322° 2026-09-06 03:54:55.387
JP1YJT-I JP1YJT-I 13.21km 91° 2026-09-06 11:40:40.349
JO1ACA-B JO1ACA-B 27.02km 93° 2026-09-05 18:43:49.827
JJ1NPN-9 JJ1NPN-9 27.58km 338° 2026-09-05 21:11:50.451
JA1SJS-9 JA1SJS-9 23.39km 176° 2026-09-05 22:05:35.456
JJ1YEG-10 JJ1YEG-10 25.79km 160° 2026-09-06 11:26:17.25
JH1BLT-12 JH1BLT-12 25.80km 160° 2026-09-06 11:45:10.59
JM8TSS-9 JM8TSS-9 28.69km 277° 2026-09-06 06:28:54.275
JJ1LFO-9 JJ1LFO-9 25.20km 275° 2026-09-06 10:18:32.634
JO1KBQ-9 JO1KBQ-9 24.11km 280° 2026-09-05 10:28:51.727
JG1PNO-8 JG1PNO-8 29.38km 297° 2026-09-06 07:03:49.496
呼号 距离 位置时刻
JH1KQX-7 JH1KQX-7 22.97km 281° 2026-09-05 14:21:42.136
JG1PNO-7 JG1PNO-7 13.06km 262° 2026-09-06 07:42:19.853
JG1KGY-9 JG1KGY-9 14.04km 268° 2026-09-06 07:54:41.906
JO1UIC-10 JO1UIC-10 9.90km 249° 2026-09-06 11:41:39.475
JK1PEB-1 JK1PEB-1 6.90km 260° 2026-09-06 10:58:08.242
JJ1QMM-A JJ1QMM-A 11.55km 296° 2026-09-05 16:19:21.949
JG1XLX-9 JG1XLX-9 10.01km 183° 2026-09-06 11:43:11.209
JK1PEU-C JK1PEU-C 12.05km 131° 2026-09-06 09:35:53.11
JQ1XLC-7 JQ1XLC-7 3.56km 202° 2026-09-05 14:47:25.246
JS1YGO-10 JS1YGO-10 1.37km 268° 2026-09-06 11:27:28.743
JH1PFO-9 JH1PFO-9 4.13km 313° 2026-09-05 10:41:00.936
JH1DPC-9 JH1DPC-9 2.22km 24° 2026-09-06 09:57:33.525
JL1TJX-7 JL1TJX-7 22.20km 287° 2026-09-05 17:01:18.925
JL1TJX-5 JL1TJX-5 22.20km 288° 2026-09-05 20:23:52.448
JG1FPD-9 JG1FPD-9 19.01km 288° 2026-09-05 23:50:51.006
JK1WMD-8 JK1WMD-8 22.60km 298° 2026-09-06 11:06:08.467
JP1YFY-I JP1YFY-I 14.16km 299° 2026-09-06 11:40:18.394
JG1WYZ-9 JG1WYZ-9 10.98km 302° 2026-09-06 09:41:32.897
JI1NKN JI1NKN 26.03km 315° 2026-09-06 06:41:22.354
7K3LHX-10 7K3LHX-10 26.06km 323° 2026-09-06 11:34:17.544
JP1YLB-I JP1YLB-I 25.18km 331° 2026-09-06 11:40:57.388
JP1YKO-I JP1YKO-I 6.02km 10° 2026-09-06 11:50:00.732
JM1YTR-10 JM1YTR-10 22.21km 83° 2026-09-06 11:27:37.758
JP1YLM-I JP1YLM-I 20.11km 66° 2026-09-06 11:40:00.351
JS1IWB JS1IWB 24.46km 206° 2026-09-06 07:16:28.324
JM1YTU-3 JM1YTU-3 22.83km 175° 2026-09-06 11:53:22.562
JJ1YEG-2 JJ1YEG-2 25.79km 160° 2026-09-06 11:26:15.019
JP1YLI-I JP1YLI-I 23.97km 132° 2026-09-06 11:45:42.757
JP1YJK-I JP1YJK-I 27.84km 279° 2026-09-06 11:51:15.344
JJ1LFO-10 JJ1LFO-10 25.22km 275° 2026-09-06 11:50:50.219
JQ1ZEC-10 JQ1ZEC-10 28.45km 281° 2026-09-05 21:37:09.161
JQ1QBR JQ1QBR 28.33km 300° 2026-09-05 19:21:46.83
JG1JZL-7 JG1JZL-7